Weather at Kirk Field

Public forecast

Using degrees Fahrenheit for public forecast. Weather courtesy of forecast.io.

Closest aviation weather report (METAR) to Kirk Field

Closest report is Jonesboro Municipal Airport, 15.4 nm (28.6 km) SSW. Retrieved 2021/07/27 22:53 UTC (59 minutes ago):

KJBR 272253Z AUTO 05006KT 10SM CLR 34/25 A2996 RMK AO2 SLP143 T03390250

Closest aviation forecast (TAF) to Kirk Field

Closest forecast is Jonesboro Municipal Airport, 15.4 nm (28.6 km) SSW. Retrieved 2021/07/27 18:42 UTC (5 hours ago):

TAF KJBR 271740Z 2718/2818 09005KT P6SM FEW030 SCT250 FM272100 06007KT P6SM VCTS SCT040CB SCT250 FM280200 VRB02KT P6SM SKC FM281300 05005KT P6SM FEW040